sensor_id;sensor_type;location;lat;lon;timestamp;P1;durP1;ratioP1;P2;durP2;ratioP2
14377;SDS011;7272;53.668;9.578;2024-02-23T00:02:53;0.93;;;0.90;;
14377;SDS011;7272;53.668;9.578;2024-02-23T00:05:57;1.17;;;0.90;;
14377;SDS011;7272;53.668;9.578;2024-02-23T00:09:00;1.70;;;1.13;;
14377;SDS011;7272;53.668;9.578;2024-02-23T00:12:01;1.00;;;0.93;;
14377;SDS011;7272;53.668;9.578;2024-02-23T00:15:03;0.90;;;0.90;;
14377;SDS011;7272;53.668;9.578;2024-02-23T00:18:04;0.87;;;0.80;;
14377;SDS011;7272;53.668;9.578;2024-02-23T00:21:06;2.43;;;1.10;;
14377;SDS011;7272;53.668;9.578;2024-02-23T00:24:08;2.20;;;0.90;;
14377;SDS011;7272;53.668;9.578;2024-02-23T00:27:10;1.00;;;1.00;;
14377;SDS011;7272;53.668;9.578;2024-02-23T00:30:11;1.20;;;1.10;;
14377;SDS011;7272;53.668;9.578;2024-02-23T00:33:13;1.00;;;0.90;;
14377;SDS011;7272;53.668;9.578;2024-02-23T00:36:14;0.80;;;0.73;;
14377;SDS011;7272;53.668;9.578;2024-02-23T00:39:16;0.83;;;0.83;;
14377;SDS011;7272;53.668;9.578;2024-02-23T00:42:17;1.10;;;1.00;;
14377;SDS011;7272;53.668;9.578;2024-02-23T00:45:18;0.70;;;0.70;;
14377;SDS011;7272;53.668;9.578;2024-02-23T00:48:19;0.80;;;0.80;;
14377;SDS011;7272;53.668;9.578;2024-02-23T00:51:21;0.63;;;0.63;;
14377;SDS011;7272;53.668;9.578;2024-02-23T00:54:22;0.73;;;0.73;;
14377;SDS011;7272;53.668;9.578;2024-02-23T00:57:24;0.63;;;0.63;;
14377;SDS011;7272;53.668;9.578;2024-02-23T01:00:29;0.67;;;0.60;;
14377;SDS011;7272;53.668;9.578;2024-02-23T01:03:31;0.50;;;0.50;;
14377;SDS011;7272;53.668;9.578;2024-02-23T01:06:32;0.60;;;0.60;;
14377;SDS011;7272;53.668;9.578;2024-02-23T01:09:34;1.07;;;0.67;;
14377;SDS011;7272;53.668;9.578;2024-02-23T01:12:35;0.60;;;0.60;;
14377;SDS011;7272;53.668;9.578;2024-02-23T01:15:37;0.60;;;0.60;;
14377;SDS011;7272;53.668;9.578;2024-02-23T01:18:38;1.23;;;0.70;;
14377;SDS011;7272;53.668;9.578;2024-02-23T01:21:39;0.53;;;0.53;;
14377;SDS011;7272;53.668;9.578;2024-02-23T01:24:41;0.60;;;0.60;;
14377;SDS011;7272;53.668;9.578;2024-02-23T01:27:43;0.60;;;0.60;;
14377;SDS011;7272;53.668;9.578;2024-02-23T01:30:44;0.53;;;0.53;;
14377;SDS011;7272;53.668;9.578;2024-02-23T01:33:46;0.60;;;0.60;;
14377;SDS011;7272;53.668;9.578;2024-02-23T01:36:47;1.07;;;0.60;;
14377;SDS011;7272;53.668;9.578;2024-02-23T01:39:49;0.60;;;0.60;;
14377;SDS011;7272;53.668;9.578;2024-02-23T01:42:59;0.57;;;0.57;;
14377;SDS011;7272;53.668;9.578;2024-02-23T01:46:02;0.60;;;0.60;;
14377;SDS011;7272;53.668;9.578;2024-02-23T01:49:05;0.50;;;0.50;;
14377;SDS011;7272;53.668;9.578;2024-02-23T01:52:08;0.50;;;0.50;;
14377;SDS011;7272;53.668;9.578;2024-02-23T01:55:10;0.60;;;0.60;;
14377;SDS011;7272;53.668;9.578;2024-02-23T01:58:12;0.60;;;0.60;;
14377;SDS011;7272;53.668;9.578;2024-02-23T02:01:13;0.87;;;0.80;;
14377;SDS011;7272;53.668;9.578;2024-02-23T02:04:14;0.60;;;0.60;;
14377;SDS011;7272;53.668;9.578;2024-02-23T02:07:16;0.53;;;0.53;;
14377;SDS011;7272;53.668;9.578;2024-02-23T02:10:19;0.60;;;0.60;;
14377;SDS011;7272;53.668;9.578;2024-02-23T02:13:21;0.60;;;0.60;;
14377;SDS011;7272;53.668;9.578;2024-02-23T02:16:22;0.70;;;0.70;;
14377;SDS011;7272;53.668;9.578;2024-02-23T02:19:24;0.60;;;0.60;;
14377;SDS011;7272;53.668;9.578;2024-02-23T02:22:25;0.60;;;0.60;;
14377;SDS011;7272;53.668;9.578;2024-02-23T02:25:27;0.60;;;0.60;;
14377;SDS011;7272;53.668;9.578;2024-02-23T02:28:28;0.60;;;0.60;;
14377;SDS011;7272;53.668;9.578;2024-02-23T02:31:29;0.80;;;0.80;;
14377;SDS011;7272;53.668;9.578;2024-02-23T02:34:37;0.97;;;0.70;;
14377;SDS011;7272;53.668;9.578;2024-02-23T02:37:38;0.70;;;0.70;;
14377;SDS011;7272;53.668;9.578;2024-02-23T02:40:40;0.90;;;0.90;;
14377;SDS011;7272;53.668;9.578;2024-02-23T02:43:41;0.70;;;0.70;;
14377;SDS011;7272;53.668;9.578;2024-02-23T02:46:42;1.50;;;0.90;;
14377;SDS011;7272;53.668;9.578;2024-02-23T02:49:43;0.80;;;0.80;;
14377;SDS011;7272;53.668;9.578;2024-02-23T02:52:45;1.83;;;0.70;;
14377;SDS011;7272;53.668;9.578;2024-02-23T02:55:47;1.50;;;0.70;;
14377;SDS011;7272;53.668;9.578;2024-02-23T02:58:48;0.70;;;0.70;;
14377;SDS011;7272;53.668;9.578;2024-02-23T03:01:50;0.60;;;0.60;;
14377;SDS011;7272;53.668;9.578;2024-02-23T03:04:51;0.87;;;0.80;;
14377;SDS011;7272;53.668;9.578;2024-02-23T03:07:54;0.97;;;0.80;;
14377;SDS011;7272;53.668;9.578;2024-02-23T03:10:56;0.80;;;0.80;;
14377;SDS011;7272;53.668;9.578;2024-02-23T03:13:57;1.37;;;0.90;;
14377;SDS011;7272;53.668;9.578;2024-02-23T03:16:59;1.23;;;1.00;;
14377;SDS011;7272;53.668;9.578;2024-02-23T03:20:00;1.03;;;0.90;;
14377;SDS011;7272;53.668;9.578;2024-02-23T03:23:01;1.80;;;1.10;;
14377;SDS011;7272;53.668;9.578;2024-02-23T03:26:06;2.23;;;1.10;;
14377;SDS011;7272;53.668;9.578;2024-02-23T03:29:07;1.13;;;0.90;;
14377;SDS011;7272;53.668;9.578;2024-02-23T03:32:09;1.90;;;0.90;;
14377;SDS011;7272;53.668;9.578;2024-02-23T03:35:10;0.80;;;0.80;;
14377;SDS011;7272;53.668;9.578;2024-02-23T03:38:12;2.03;;;1.00;;
14377;SDS011;7272;53.668;9.578;2024-02-23T03:41:14;1.57;;;1.10;;
14377;SDS011;7272;53.668;9.578;2024-02-23T03:44:15;2.97;;;1.07;;
14377;SDS011;7272;53.668;9.578;2024-02-23T03:47:16;1.80;;;1.07;;
14377;SDS011;7272;53.668;9.578;2024-02-23T03:50:17;3.30;;;1.10;;
14377;SDS011;7272;53.668;9.578;2024-02-23T03:53:18;1.27;;;1.10;;
14377;SDS011;7272;53.668;9.578;2024-02-23T03:56:20;2.93;;;0.90;;
14377;SDS011;7272;53.668;9.578;2024-02-23T03:59:21;1.20;;;1.10;;
14377;SDS011;7272;53.668;9.578;2024-02-23T04:02:23;3.10;;;1.27;;
14377;SDS011;7272;53.668;9.578;2024-02-23T04:05:24;1.80;;;0.77;;
14377;SDS011;7272;53.668;9.578;2024-02-23T04:08:25;3.33;;;1.00;;
14377;SDS011;7272;53.668;9.578;2024-02-23T04:11:27;1.77;;;0.80;;
14377;SDS011;7272;53.668;9.578;2024-02-23T04:14:28;1.47;;;1.03;;
14377;SDS011;7272;53.668;9.578;2024-02-23T04:17:29;1.67;;;1.27;;
14377;SDS011;7272;53.668;9.578;2024-02-23T04:20:31;1.63;;;0.90;;
14377;SDS011;7272;53.668;9.578;2024-02-23T04:23:33;3.20;;;1.00;;
14377;SDS011;7272;53.668;9.578;2024-02-23T04:26:35;1.30;;;1.20;;
14377;SDS011;7272;53.668;9.578;2024-02-23T04:29:36;3.53;;;1.10;;
14377;SDS011;7272;53.668;9.578;2024-02-23T04:32:38;1.10;;;1.00;;
14377;SDS011;7272;53.668;9.578;2024-02-23T04:35:40;1.93;;;1.20;;
14377;SDS011;7272;53.668;9.578;2024-02-23T04:38:41;1.53;;;0.93;;
14377;SDS011;7272;53.668;9.578;2024-02-23T04:41:43;2.00;;;1.23;;
14377;SDS011;7272;53.668;9.578;2024-02-23T04:44:44;2.23;;;1.03;;
14377;SDS011;7272;53.668;9.578;2024-02-23T04:47:46;1.30;;;1.20;;
14377;SDS011;7272;53.668;9.578;2024-02-23T04:50:48;1.93;;;1.40;;
14377;SDS011;7272;53.668;9.578;2024-02-23T04:53:49;2.90;;;1.27;;
14377;SDS011;7272;53.668;9.578;2024-02-23T04:56:51;2.50;;;1.43;;
14377;SDS011;7272;53.668;9.578;2024-02-23T04:59:53;2.83;;;1.83;;
14377;SDS011;7272;53.668;9.578;2024-02-23T05:02:54;3.90;;;1.97;;
14377;SDS011;7272;53.668;9.578;2024-02-23T05:05:55;2.73;;;1.90;;
14377;SDS011;7272;53.668;9.578;2024-02-23T05:08:56;4.60;;;2.10;;
14377;SDS011;7272;53.668;9.578;2024-02-23T05:11:58;2.10;;;1.83;;
14377;SDS011;7272;53.668;9.578;2024-02-23T05:15:00;3.87;;;1.97;;
14377;SDS011;7272;53.668;9.578;2024-02-23T05:18:01;2.73;;;1.90;;
14377;SDS011;7272;53.668;9.578;2024-02-23T05:21:02;3.00;;;2.30;;
14377;SDS011;7272;53.668;9.578;2024-02-23T05:24:04;5.30;;;2.20;;
14377;SDS011;7272;53.668;9.578;2024-02-23T05:27:06;2.23;;;2.03;;
14377;SDS011;7272;53.668;9.578;2024-02-23T05:30:08;6.07;;;2.47;;
14377;SDS011;7272;53.668;9.578;2024-02-23T05:33:10;5.07;;;2.10;;
14377;SDS011;7272;53.668;9.578;2024-02-23T05:36:12;3.67;;;2.17;;
14377;SDS011;7272;53.668;9.578;2024-02-23T05:39:13;2.37;;;2.10;;
14377;SDS011;7272;53.668;9.578;2024-02-23T05:42:16;4.33;;;2.50;;
14377;SDS011;7272;53.668;9.578;2024-02-23T05:45:17;2.43;;;2.20;;
14377;SDS011;7272;53.668;9.578;2024-02-23T05:48:19;3.50;;;2.00;;
14377;SDS011;7272;53.668;9.578;2024-02-23T05:51:20;2.00;;;1.80;;
14377;SDS011;7272;53.668;9.578;2024-02-23T05:54:22;2.43;;;1.57;;
14377;SDS011;7272;53.668;9.578;2024-02-23T05:57:24;1.77;;;1.67;;
14377;SDS011;7272;53.668;9.578;2024-02-23T06:00:25;3.30;;;1.60;;
14377;SDS011;7272;53.668;9.578;2024-02-23T06:03:26;3.50;;;1.80;;
14377;SDS011;7272;53.668;9.578;2024-02-23T06:06:28;1.90;;;1.60;;
14377;SDS011;7272;53.668;9.578;2024-02-23T06:09:29;2.50;;;1.87;;
14377;SDS011;7272;53.668;9.578;2024-02-23T06:12:31;2.57;;;1.60;;
14377;SDS011;7272;53.668;9.578;2024-02-23T06:15:32;3.33;;;1.97;;
14377;SDS011;7272;53.668;9.578;2024-02-23T06:18:33;1.57;;;1.30;;
14377;SDS011;7272;53.668;9.578;2024-02-23T06:21:35;3.30;;;1.50;;
14377;SDS011;7272;53.668;9.578;2024-02-23T06:24:36;1.90;;;1.70;;
14377;SDS011;7272;53.668;9.578;2024-02-23T06:27:38;2.43;;;1.73;;
14377;SDS011;7272;53.668;9.578;2024-02-23T06:30:40;4.03;;;1.73;;
14377;SDS011;7272;53.668;9.578;2024-02-23T06:33:41;3.70;;;1.63;;
14377;SDS011;7272;53.668;9.578;2024-02-23T06:36:42;2.13;;;1.50;;
14377;SDS011;7272;53.668;9.578;2024-02-23T06:39:43;2.63;;;1.93;;
14377;SDS011;7272;53.668;9.578;2024-02-23T06:42:50;3.63;;;1.90;;
14377;SDS011;7272;53.668;9.578;2024-02-23T06:45:51;3.07;;;1.90;;
14377;SDS011;7272;53.668;9.578;2024-02-23T06:48:53;3.60;;;2.10;;
14377;SDS011;7272;53.668;9.578;2024-02-23T06:51:54;2.97;;;2.40;;
14377;SDS011;7272;53.668;9.578;2024-02-23T06:54:56;2.83;;;2.53;;
14377;SDS011;7272;53.668;9.578;2024-02-23T06:57:57;3.27;;;2.10;;
14377;SDS011;7272;53.668;9.578;2024-02-23T07:00:59;3.83;;;2.60;;
14377;SDS011;7272;53.668;9.578;2024-02-23T07:04:01;2.13;;;2.03;;
14377;SDS011;7272;53.668;9.578;2024-02-23T07:07:02;2.50;;;2.10;;
14377;SDS011;7272;53.668;9.578;2024-02-23T07:10:07;2.90;;;2.30;;
14377;SDS011;7272;53.668;9.578;2024-02-23T07:13:11;2.53;;;2.10;;
14377;SDS011;7272;53.668;9.578;2024-02-23T07:16:12;5.03;;;2.30;;
14377;SDS011;7272;53.668;9.578;2024-02-23T07:19:13;4.10;;;2.20;;
14377;SDS011;7272;53.668;9.578;2024-02-23T07:22:15;2.40;;;2.20;;
14377;SDS011;7272;53.668;9.578;2024-02-23T07:25:18;3.10;;;2.57;;
14377;SDS011;7272;53.668;9.578;2024-02-23T07:28:21;3.60;;;2.30;;
14377;SDS011;7272;53.668;9.578;2024-02-23T07:31:23;3.70;;;2.50;;
14377;SDS011;7272;53.668;9.578;2024-02-23T07:34:25;3.33;;;2.30;;
14377;SDS011;7272;53.668;9.578;2024-02-23T07:37:26;3.50;;;2.50;;
14377;SDS011;7272;53.668;9.578;2024-02-23T07:40:27;2.67;;;2.27;;
14377;SDS011;7272;53.668;9.578;2024-02-23T07:43:29;5.80;;;2.53;;
14377;SDS011;7272;53.668;9.578;2024-02-23T07:46:30;2.93;;;2.30;;
14377;SDS011;7272;53.668;9.578;2024-02-23T07:49:31;2.57;;;2.37;;
14377;SDS011;7272;53.668;9.578;2024-02-23T07:52:33;5.47;;;3.20;;
14377;SDS011;7272;53.668;9.578;2024-02-23T07:55:34;2.70;;;2.50;;
14377;SDS011;7272;53.668;9.578;2024-02-23T07:58:36;3.60;;;2.40;;
14377;SDS011;7272;53.668;9.578;2024-02-23T08:01:37;2.67;;;2.47;;
14377;SDS011;7272;53.668;9.578;2024-02-23T08:04:38;3.00;;;2.77;;
14377;SDS011;7272;53.668;9.578;2024-02-23T08:07:39;3.83;;;2.50;;
14377;SDS011;7272;53.668;9.578;2024-02-23T08:10:40;3.77;;;2.40;;
14377;SDS011;7272;53.668;9.578;2024-02-23T08:13:42;4.97;;;2.97;;
14377;SDS011;7272;53.668;9.578;2024-02-23T08:16:44;3.80;;;2.20;;
14377;SDS011;7272;53.668;9.578;2024-02-23T08:19:45;4.10;;;2.50;;
14377;SDS011;7272;53.668;9.578;2024-02-23T08:22:47;3.17;;;2.60;;
14377;SDS011;7272;53.668;9.578;2024-02-23T08:25:48;3.57;;;2.57;;
14377;SDS011;7272;53.668;9.578;2024-02-23T08:28:50;4.10;;;2.40;;
14377;SDS011;7272;53.668;9.578;2024-02-23T08:31:51;3.13;;;2.37;;
14377;SDS011;7272;53.668;9.578;2024-02-23T08:34:52;3.93;;;2.60;;
14377;SDS011;7272;53.668;9.578;2024-02-23T08:37:59;5.00;;;2.23;;
14377;SDS011;7272;53.668;9.578;2024-02-23T08:41:00;5.83;;;2.43;;
14377;SDS011;7272;53.668;9.578;2024-02-23T08:44:03;4.77;;;2.37;;
14377;SDS011;7272;53.668;9.578;2024-02-23T08:47:05;4.00;;;2.90;;
14377;SDS011;7272;53.668;9.578;2024-02-23T08:50:06;4.10;;;2.33;;
14377;SDS011;7272;53.668;9.578;2024-02-23T08:53:08;4.87;;;2.40;;
14377;SDS011;7272;53.668;9.578;2024-02-23T08:56:09;5.20;;;2.40;;
14377;SDS011;7272;53.668;9.578;2024-02-23T08:59:12;3.90;;;2.30;;
14377;SDS011;7272;53.668;9.578;2024-02-23T09:02:13;2.30;;;2.00;;
14377;SDS011;7272;53.668;9.578;2024-02-23T09:05:15;3.10;;;2.27;;
14377;SDS011;7272;53.668;9.578;2024-02-23T09:08:16;3.57;;;2.17;;
14377;SDS011;7272;53.668;9.578;2024-02-23T09:11:17;4.20;;;2.03;;
14377;SDS011;7272;53.668;9.578;2024-02-23T09:14:19;3.43;;;2.10;;
14377;SDS011;7272;53.668;9.578;2024-02-23T09:17:20;5.73;;;2.80;;
14377;SDS011;7272;53.668;9.578;2024-02-23T09:20:21;4.07;;;2.33;;
14377;SDS011;7272;53.668;9.578;2024-02-23T09:23:23;2.50;;;1.70;;
14377;SDS011;7272;53.668;9.578;2024-02-23T09:26:24;5.10;;;2.97;;
14377;SDS011;7272;53.668;9.578;2024-02-23T09:29:26;3.67;;;2.10;;
14377;SDS011;7272;53.668;9.578;2024-02-23T09:32:28;6.03;;;2.57;;
14377;SDS011;7272;53.668;9.578;2024-02-23T09:35:29;3.83;;;2.40;;
14377;SDS011;7272;53.668;9.578;2024-02-23T09:38:31;4.40;;;1.90;;
14377;SDS011;7272;53.668;9.578;2024-02-23T09:41:32;2.63;;;1.87;;
14377;SDS011;7272;53.668;9.578;2024-02-23T09:44:35;5.07;;;2.10;;
14377;SDS011;7272;53.668;9.578;2024-02-23T09:47:37;3.57;;;2.00;;
14377;SDS011;7272;53.668;9.578;2024-02-23T09:50:39;4.47;;;2.10;;
14377;SDS011;7272;53.668;9.578;2024-02-23T09:53:42;2.90;;;1.90;;
14377;SDS011;7272;53.668;9.578;2024-02-23T09:56:44;3.37;;;2.00;;
14377;SDS011;7272;53.668;9.578;2024-02-23T09:59:46;4.07;;;1.87;;
14377;SDS011;7272;53.668;9.578;2024-02-23T10:02:49;3.30;;;1.97;;
14377;SDS011;7272;53.668;9.578;2024-02-23T10:05:51;4.43;;;1.90;;
14377;SDS011;7272;53.668;9.578;2024-02-23T10:08:53;4.40;;;1.83;;
14377;SDS011;7272;53.668;9.578;2024-02-23T10:11:54;4.17;;;1.90;;
14377;SDS011;7272;53.668;9.578;2024-02-23T10:14:56;3.80;;;1.73;;
14377;SDS011;7272;53.668;9.578;2024-02-23T10:17:57;2.77;;;1.93;;
14377;SDS011;7272;53.668;9.578;2024-02-23T10:20:59;2.85;;;1.80;;
14377;SDS011;7272;53.668;9.578;2024-02-23T10:24:00;4.13;;;2.30;;
14377;SDS011;7272;53.668;9.578;2024-02-23T10:27:01;4.70;;;1.67;;
14377;SDS011;7272;53.668;9.578;2024-02-23T10:30:04;4.50;;;1.90;;
14377;SDS011;7272;53.668;9.578;2024-02-23T10:33:06;3.97;;;1.70;;
14377;SDS011;7272;53.668;9.578;2024-02-23T10:36:07;3.60;;;1.87;;
14377;SDS011;7272;53.668;9.578;2024-02-23T10:39:09;4.37;;;1.77;;
14377;SDS011;7272;53.668;9.578;2024-02-23T10:42:11;5.93;;;1.87;;
14377;SDS011;7272;53.668;9.578;2024-02-23T10:45:15;2.80;;;1.57;;
14377;SDS011;7272;53.668;9.578;2024-02-23T10:48:17;2.53;;;1.37;;
14377;SDS011;7272;53.668;9.578;2024-02-23T10:51:18;3.23;;;1.57;;
14377;SDS011;7272;53.668;9.578;2024-02-23T10:54:20;4.40;;;1.70;;
14377;SDS011;7272;53.668;9.578;2024-02-23T10:57:21;2.90;;;1.37;;
14377;SDS011;7272;53.668;9.578;2024-02-23T11:00:23;4.97;;;1.73;;
14377;SDS011;7272;53.668;9.578;2024-02-23T11:03:26;3.00;;;1.60;;
14377;SDS011;7272;53.668;9.578;2024-02-23T11:06:27;3.83;;;1.57;;
14377;SDS011;7272;53.668;9.578;2024-02-23T11:09:29;2.60;;;1.90;;
14377;SDS011;7272;53.668;9.578;2024-02-23T11:12:33;3.47;;;1.73;;
14377;SDS011;7272;53.668;9.578;2024-02-23T11:15:35;2.67;;;1.80;;
14377;SDS011;7272;53.668;9.578;2024-02-23T11:18:43;3.07;;;1.70;;
14377;SDS011;7272;53.668;9.578;2024-02-23T11:21:51;1.93;;;1.60;;
14377;SDS011;7272;53.668;9.578;2024-02-23T11:24:53;3.23;;;1.80;;
14377;SDS011;7272;53.668;9.578;2024-02-23T11:27:54;2.40;;;1.50;;
14377;SDS011;7272;53.668;9.578;2024-02-23T11:30:56;1.50;;;1.40;;
14377;SDS011;7272;53.668;9.578;2024-02-23T11:34:07;2.70;;;1.50;;
14377;SDS011;7272;53.668;9.578;2024-02-23T11:37:09;2.50;;;1.80;;
14377;SDS011;7272;53.668;9.578;2024-02-23T11:40:12;2.33;;;1.70;;
14377;SDS011;7272;53.668;9.578;2024-02-23T11:43:14;2.70;;;1.20;;
14377;SDS011;7272;53.668;9.578;2024-02-23T11:46:15;1.57;;;1.10;;
14377;SDS011;7272;53.668;9.578;2024-02-23T11:49:17;1.90;;;1.73;;
14377;SDS011;7272;53.668;9.578;2024-02-23T11:52:18;2.37;;;1.30;;
14377;SDS011;7272;53.668;9.578;2024-02-23T11:55:20;2.60;;;1.70;;
14377;SDS011;7272;53.668;9.578;2024-02-23T11:58:22;4.43;;;1.50;;
14377;SDS011;7272;53.668;9.578;2024-02-23T12:01:24;2.40;;;1.20;;
14377;SDS011;7272;53.668;9.578;2024-02-23T12:04:26;5.03;;;1.90;;
14377;SDS011;7272;53.668;9.578;2024-02-23T12:07:27;4.70;;;1.53;;
14377;SDS011;7272;53.668;9.578;2024-02-23T12:10:30;3.70;;;1.63;;
14377;SDS011;7272;53.668;9.578;2024-02-23T12:13:31;2.60;;;2.10;;
14377;SDS011;7272;53.668;9.578;2024-02-23T12:16:34;2.13;;;1.30;;
14377;SDS011;7272;53.668;9.578;2024-02-23T12:19:37;2.57;;;1.43;;
14377;SDS011;7272;53.668;9.578;2024-02-23T12:22:40;4.30;;;1.47;;
14377;SDS011;7272;53.668;9.578;2024-02-23T12:25:51;2.50;;;1.27;;
14377;SDS011;7272;53.668;9.578;2024-02-23T12:28:59;1.50;;;1.37;;
14377;SDS011;7272;53.668;9.578;2024-02-23T12:32:05;3.43;;;1.47;;
14377;SDS011;7272;53.668;9.578;2024-02-23T12:35:10;2.87;;;1.40;;
14377;SDS011;7272;53.668;9.578;2024-02-23T12:38:12;3.30;;;1.33;;
14377;SDS011;7272;53.668;9.578;2024-02-23T12:41:13;3.13;;;1.60;;
14377;SDS011;7272;53.668;9.578;2024-02-23T12:44:14;2.10;;;1.17;;
14377;SDS011;7272;53.668;9.578;2024-02-23T12:47:16;2.33;;;1.37;;
14377;SDS011;7272;53.668;9.578;2024-02-23T12:50:17;3.30;;;1.20;;
14377;SDS011;7272;53.668;9.578;2024-02-23T12:53:31;3.03;;;1.47;;
14377;SDS011;7272;53.668;9.578;2024-02-23T12:56:34;1.53;;;1.13;;
14377;SDS011;7272;53.668;9.578;2024-02-23T12:59:36;2.67;;;1.43;;
14377;SDS011;7272;53.668;9.578;2024-02-23T13:02:37;1.77;;;1.20;;
14377;SDS011;7272;53.668;9.578;2024-02-23T13:05:39;1.67;;;1.20;;
14377;SDS011;7272;53.668;9.578;2024-02-23T13:08:40;3.37;;;1.40;;
14377;SDS011;7272;53.668;9.578;2024-02-23T13:11:42;2.07;;;1.20;;
14377;SDS011;7272;53.668;9.578;2024-02-23T13:14:44;3.43;;;1.40;;
14377;SDS011;7272;53.668;9.578;2024-02-23T13:17:45;3.47;;;1.40;;
14377;SDS011;7272;53.668;9.578;2024-02-23T13:20:47;1.17;;;1.00;;
14377;SDS011;7272;53.668;9.578;2024-02-23T13:23:48;2.50;;;1.50;;
14377;SDS011;7272;53.668;9.578;2024-02-23T13:26:50;2.43;;;1.13;;
14377;SDS011;7272;53.668;9.578;2024-02-23T13:29:51;2.17;;;1.40;;
14377;SDS011;7272;53.668;9.578;2024-02-23T13:32:53;1.67;;;1.30;;
14377;SDS011;7272;53.668;9.578;2024-02-23T13:35:54;1.90;;;1.20;;
14377;SDS011;7272;53.668;9.578;2024-02-23T13:38:55;1.90;;;1.50;;
14377;SDS011;7272;53.668;9.578;2024-02-23T13:41:56;2.47;;;1.50;;
14377;SDS011;7272;53.668;9.578;2024-02-23T13:44:58;2.07;;;1.37;;
14377;SDS011;7272;53.668;9.578;2024-02-23T13:48:00;1.40;;;1.30;;
14377;SDS011;7272;53.668;9.578;2024-02-23T13:51:03;2.63;;;1.50;;
14377;SDS011;7272;53.668;9.578;2024-02-23T13:54:05;2.17;;;1.33;;
14377;SDS011;7272;53.668;9.578;2024-02-23T13:57:06;2.43;;;1.43;;
14377;SDS011;7272;53.668;9.578;2024-02-23T14:00:08;1.67;;;1.17;;
14377;SDS011;7272;53.668;9.578;2024-02-23T14:03:15;1.53;;;1.17;;
14377;SDS011;7272;53.668;9.578;2024-02-23T14:06:18;2.37;;;1.37;;
14377;SDS011;7272;53.668;9.578;2024-02-23T14:09:19;2.53;;;1.50;;
14377;SDS011;7272;53.668;9.578;2024-02-23T14:12:20;2.60;;;1.30;;
14377;SDS011;7272;53.668;9.578;2024-02-23T14:15:21;1.73;;;1.30;;
14377;SDS011;7272;53.668;9.578;2024-02-23T14:18:23;2.23;;;1.27;;
14377;SDS011;7272;53.668;9.578;2024-02-23T14:21:24;2.73;;;1.10;;
14377;SDS011;7272;53.668;9.578;2024-02-23T14:24:26;2.20;;;1.20;;
14377;SDS011;7272;53.668;9.578;2024-02-23T14:27:27;1.50;;;1.10;;
14377;SDS011;7272;53.668;9.578;2024-02-23T14:30:28;2.10;;;1.20;;
14377;SDS011;7272;53.668;9.578;2024-02-23T14:33:31;2.43;;;1.47;;
14377;SDS011;7272;53.668;9.578;2024-02-23T14:36:32;2.50;;;1.33;;
14377;SDS011;7272;53.668;9.578;2024-02-23T14:39:34;2.00;;;1.37;;
14377;SDS011;7272;53.668;9.578;2024-02-23T14:42:36;2.03;;;1.10;;
14377;SDS011;7272;53.668;9.578;2024-02-23T14:45:37;1.77;;;1.17;;
14377;SDS011;7272;53.668;9.578;2024-02-23T14:48:39;1.47;;;1.10;;
14377;SDS011;7272;53.668;9.578;2024-02-23T14:51:40;1.73;;;1.20;;
14377;SDS011;7272;53.668;9.578;2024-02-23T14:54:43;2.17;;;1.23;;
14377;SDS011;7272;53.668;9.578;2024-02-23T14:57:44;1.40;;;1.30;;
14377;SDS011;7272;53.668;9.578;2024-02-23T15:00:45;2.40;;;1.10;;
14377;SDS011;7272;53.668;9.578;2024-02-23T15:03:47;2.57;;;1.20;;
14377;SDS011;7272;53.668;9.578;2024-02-23T15:06:49;1.87;;;1.03;;
14377;SDS011;7272;53.668;9.578;2024-02-23T15:09:50;3.77;;;1.10;;
14377;SDS011;7272;53.668;9.578;2024-02-23T15:12:51;2.30;;;1.23;;
14377;SDS011;7272;53.668;9.578;2024-02-23T15:15:53;2.67;;;1.17;;
14377;SDS011;7272;53.668;9.578;2024-02-23T15:18:56;2.63;;;1.00;;
14377;SDS011;7272;53.668;9.578;2024-02-23T15:21:58;1.67;;;1.10;;
14377;SDS011;7272;53.668;9.578;2024-02-23T15:24:59;0.90;;;0.90;;
14377;SDS011;7272;53.668;9.578;2024-02-23T15:28:01;1.67;;;1.20;;
14377;SDS011;7272;53.668;9.578;2024-02-23T15:31:02;1.90;;;1.10;;
14377;SDS011;7272;53.668;9.578;2024-02-23T15:34:04;2.20;;;1.63;;
14377;SDS011;7272;53.668;9.578;2024-02-23T15:37:06;2.47;;;1.40;;
14377;SDS011;7272;53.668;9.578;2024-02-23T15:40:08;1.80;;;1.27;;
14377;SDS011;7272;53.668;9.578;2024-02-23T15:43:10;3.17;;;1.30;;
14377;SDS011;7272;53.668;9.578;2024-02-23T15:46:11;2.00;;;1.30;;
14377;SDS011;7272;53.668;9.578;2024-02-23T15:49:13;2.93;;;1.40;;
14377;SDS011;7272;53.668;9.578;2024-02-23T15:52:18;3.23;;;1.13;;
14377;SDS011;7272;53.668;9.578;2024-02-23T15:55:19;4.00;;;1.57;;
14377;SDS011;7272;53.668;9.578;2024-02-23T15:58:20;1.90;;;1.43;;
14377;SDS011;7272;53.668;9.578;2024-02-23T16:01:21;1.93;;;1.30;;
14377;SDS011;7272;53.668;9.578;2024-02-23T16:04:24;1.30;;;1.20;;
14377;SDS011;7272;53.668;9.578;2024-02-23T16:07:25;2.37;;;1.40;;
14377;SDS011;7272;53.668;9.578;2024-02-23T16:10:26;1.53;;;1.43;;
14377;SDS011;7272;53.668;9.578;2024-02-23T16:13:29;3.27;;;2.07;;
14377;SDS011;7272;53.668;9.578;2024-02-23T16:16:30;2.40;;;1.70;;
14377;SDS011;7272;53.668;9.578;2024-02-23T16:19:32;2.30;;;1.23;;
14377;SDS011;7272;53.668;9.578;2024-02-23T16:22:33;2.40;;;1.43;;
14377;SDS011;7272;53.668;9.578;2024-02-23T16:25:35;3.33;;;1.50;;
14377;SDS011;7272;53.668;9.578;2024-02-23T16:28:39;1.83;;;1.30;;
14377;SDS011;7272;53.668;9.578;2024-02-23T16:31:40;1.20;;;1.10;;
14377;SDS011;7272;53.668;9.578;2024-02-23T16:34:42;3.00;;;1.40;;
14377;SDS011;7272;53.668;9.578;2024-02-23T16:37:43;1.43;;;1.30;;
14377;SDS011;7272;53.668;9.578;2024-02-23T16:40:44;2.00;;;1.47;;
14377;SDS011;7272;53.668;9.578;2024-02-23T16:43:46;2.80;;;1.30;;
14377;SDS011;7272;53.668;9.578;2024-02-23T16:46:48;1.90;;;1.30;;
14377;SDS011;7272;53.668;9.578;2024-02-23T16:49:49;1.60;;;1.13;;
14377;SDS011;7272;53.668;9.578;2024-02-23T16:52:51;1.70;;;1.07;;
14377;SDS011;7272;53.668;9.578;2024-02-23T16:55:53;1.87;;;1.30;;
14377;SDS011;7272;53.668;9.578;2024-02-23T16:58:55;3.10;;;1.33;;
14377;SDS011;7272;53.668;9.578;2024-02-23T17:01:57;1.40;;;1.30;;
14377;SDS011;7272;53.668;9.578;2024-02-23T17:04:58;1.40;;;1.30;;
14377;SDS011;7272;53.668;9.578;2024-02-23T17:08:01;1.20;;;1.10;;
14377;SDS011;7272;53.668;9.578;2024-02-23T17:11:02;2.13;;;1.30;;
14377;SDS011;7272;53.668;9.578;2024-02-23T17:14:03;1.47;;;1.20;;
14377;SDS011;7272;53.668;9.578;2024-02-23T17:17:05;2.10;;;1.17;;
14377;SDS011;7272;53.668;9.578;2024-02-23T17:20:07;3.23;;;1.03;;
14377;SDS011;7272;53.668;9.578;2024-02-23T17:23:09;1.37;;;1.10;;
14377;SDS011;7272;53.668;9.578;2024-02-23T17:26:10;1.70;;;1.10;;
14377;SDS011;7272;53.668;9.578;2024-02-23T17:29:11;2.27;;;1.37;;
14377;SDS011;7272;53.668;9.578;2024-02-23T17:32:13;1.67;;;1.20;;
14377;SDS011;7272;53.668;9.578;2024-02-23T17:35:15;1.40;;;1.30;;
14377;SDS011;7272;53.668;9.578;2024-02-23T17:38:16;2.17;;;1.53;;
14377;SDS011;7272;53.668;9.578;2024-02-23T17:41:17;2.60;;;1.43;;
14377;SDS011;7272;53.668;9.578;2024-02-23T17:44:19;3.13;;;1.50;;
14377;SDS011;7272;53.668;9.578;2024-02-23T17:47:21;1.20;;;1.10;;
14377;SDS011;7272;53.668;9.578;2024-02-23T17:50:23;1.20;;;1.20;;
14377;SDS011;7272;53.668;9.578;2024-02-23T17:53:24;2.57;;;1.60;;
14377;SDS011;7272;53.668;9.578;2024-02-23T17:56:26;1.23;;;1.13;;
14377;SDS011;7272;53.668;9.578;2024-02-23T17:59:27;1.40;;;1.30;;
14377;SDS011;7272;53.668;9.578;2024-02-23T18:02:28;2.33;;;1.40;;
14377;SDS011;7272;53.668;9.578;2024-02-23T18:05:30;3.70;;;1.57;;
14377;SDS011;7272;53.668;9.578;2024-02-23T18:08:31;2.33;;;1.40;;
14377;SDS011;7272;53.668;9.578;2024-02-23T18:11:36;1.67;;;1.20;;
14377;SDS011;7272;53.668;9.578;2024-02-23T18:14:38;2.03;;;1.30;;
14377;SDS011;7272;53.668;9.578;2024-02-23T18:17:39;3.00;;;1.40;;
14377;SDS011;7272;53.668;9.578;2024-02-23T18:20:41;3.70;;;1.30;;
14377;SDS011;7272;53.668;9.578;2024-02-23T18:23:43;2.67;;;1.30;;
14377;SDS011;7272;53.668;9.578;2024-02-23T18:26:45;2.43;;;1.40;;
14377;SDS011;7272;53.668;9.578;2024-02-23T18:29:46;3.50;;;1.67;;
14377;SDS011;7272;53.668;9.578;2024-02-23T18:32:47;2.60;;;1.27;;